Time;durP1;ratioP1;P1;durP2;ratioP2;P2;SDS_P1;SDS_P2;PMS_P1;PMS_P2;Temp;Humidity;BMP_temperature;BMP_pressure;BME280_temperature;BME280_humidity;BME280_pressure;Samples;Min_cycle;Max_cycle;Signal;HPM_P1;HPM_P2
2023/05/02 00:00:17;;;;;;;12.93;8.00;;;10.60;99.90;;;;;;5084788;28;20459;-52
2023/05/02 00:02:44;;;;;;;12.83;8.10;;;10.60;99.90;;;;;;5073409;28;20508;-53
2023/05/02 00:05:11;;;;;;;9.80;8.20;;;10.50;99.90;;;;;;5072174;28;20964;-52
2023/05/02 00:07:38;;;;;;;10.40;7.90;;;10.50;99.90;;;;;;5072021;28;20484;-52
2023/05/02 00:10:05;;;;;;;15.47;8.00;;;10.40;89.20;;;;;;5074810;28;20983;-52
2023/05/02 00:12:32;;;;;;;8.67;7.83;;;10.40;98.40;;;;;;5077097;28;20459;-52
2023/05/02 00:14:59;;;;;;;9.73;7.83;;;10.40;99.90;;;;;;5070882;28;20462;-52
2023/05/02 00:17:27;;;;;;;10.20;8.80;;;10.40;97.90;;;;;;5074799;28;20468;-53
2023/05/02 00:19:54;;;;;;;11.50;8.70;;;10.30;95.00;;;;;;5074830;28;20887;-54
2023/05/02 00:22:20;;;;;;;10.77;8.80;;;10.20;96.20;;;;;;5076165;28;20517;-54
2023/05/02 00:24:47;;;;;;;11.30;9.00;;;10.20;99.90;;;;;;5072193;28;20483;-53
2023/05/02 00:27:14;;;;;;;11.63;8.90;;;10.20;80.50;;;;;;5073279;28;21028;-52
2023/05/02 00:29:40;;;;;;;11.57;8.70;;;10.20;95.60;;;;;;5072689;28;20472;-52
2023/05/02 00:32:07;;;;;;;9.70;8.17;;;10.10;90.70;;;;;;5072348;28;20453;-53
2023/05/02 00:34:35;;;;;;;11.00;7.57;;;10.10;94.30;;;;;;5073036;28;20493;-53
2023/05/02 00:37:02;;;;;;;9.33;7.70;;;10.00;80.10;;;;;;5068782;28;20542;-53
2023/05/02 00:39:28;;;;;;;9.90;8.07;;;9.90;76.10;;;;;;5065574;28;20493;-52
2023/05/02 00:41:58;;;;;;;11.53;8.20;;;9.90;68.70;;;;;;5077657;28;20468;-52
2023/05/02 00:44:25;;;;;;;13.60;7.63;;;9.80;77.90;;;;;;5058283;28;22101;-53
2023/05/02 00:46:52;;;;;;;9.10;7.70;;;9.80;77.90;;;;;;5059992;28;20917;-52
2023/05/02 00:49:19;;;;;;;12.53;7.53;;;9.80;58.50;;;;;;5065290;28;20460;-52
2023/05/02 00:51:47;;;;;;;7.77;7.00;;;9.80;46.80;;;;;;5067243;28;20459;-52
2023/05/02 00:54:13;;;;;;;9.43;7.57;;;9.70;59.80;;;;;;5066117;28;20609;-53
2023/05/02 00:56:41;;;;;;;8.43;7.53;;;9.70;64.60;;;;;;5064275;28;20480;-53
2023/05/02 00:59:10;;;;;;;9.93;7.70;;;9.70;72.40;;;;;;5065350;28;20539;-52
2023/05/02 01:01:47;;;;;;;11.20;8.00;;;9.70;59.30;;;;;;5064891;28;20462;-52
2023/05/02 01:04:28;;;;;;;8.70;7.57;;;9.70;66.90;;;;;;5074708;28;20547;-53
2023/05/02 01:07:10;;;;;;;8.37;7.53;;;9.70;65.10;;;;;;5064136;28;20529;-52
2023/05/02 01:09:46;;;;;;;13.03;7.40;;;9.70;78.90;;;;;;5060954;28;20461;-53
2023/05/02 01:12:21;;;;;;;7.00;6.30;;;9.70;75.00;;;;;;5061742;28;20460;-52
2023/05/02 01:14:52;;;;;;;10.87;7.90;;;9.70;72.10;;;;;;5068358;28;20452;-52
2023/05/02 01:17:20;;;;;;;9.10;6.83;;;9.70;77.00;;;;;;5074153;28;21019;-53
2023/05/02 01:19:52;;;;;;;10.60;6.83;;;9.80;71.50;;;;;;5078872;28;20788;-52
2023/05/02 01:22:22;;;;;;;8.90;7.40;;;9.80;65.70;;;;;;5058306;28;20456;-53
2023/05/02 01:24:59;;;;;;;11.37;7.67;;;9.80;69.80;;;;;;5071093;28;20490;-52
2023/05/02 01:27:36;;;;;;;7.20;6.23;;;9.80;69.40;;;;;;5069888;28;20480;-53
2023/05/02 01:30:06;;;;;;;11.57;6.70;;;9.90;74.80;;;;;;5057661;28;20952;-53
2023/05/02 01:32:34;;;;;;;8.10;6.97;;;9.90;80.70;;;;;;5070365;28;20871;-52
2023/05/02 01:35:02;;;;;;;10.77;5.80;;;10.00;85.40;;;;;;5062663;28;20454;-52
2023/05/02 01:37:30;;;;;;;7.80;7.00;;;9.90;94.00;;;;;;5068196;28;20491;-53
2023/05/02 01:39:58;;;;;;;7.17;6.40;;;9.90;96.40;;;;;;5069431;28;20464;-52
2023/05/02 01:42:26;;;;;;;12.53;6.97;;;9.90;97.50;;;;;;5076888;28;21092;-51
2023/05/02 01:44:55;;;;;;;7.70;6.80;;;9.90;97.30;;;;;;5067043;28;20978;-52
2023/05/02 01:47:24;;;;;;;8.43;6.23;;;9.80;99.80;;;;;;5066697;28;20476;-52
2023/05/02 01:49:51;;;;;;;7.83;6.20;;;9.80;99.90;;;;;;5061787;28;20464;-54
2023/05/02 01:52:21;;;;;;;6.80;5.90;;;9.80;98.60;;;;;;5066250;28;20470;-52
2023/05/02 01:54:50;;;;;;;7.20;6.40;;;9.80;97.70;;;;;;5070580;28;20509;-52
2023/05/02 01:57:18;;;;;;;8.93;7.00;;;9.80;87.50;;;;;;5065408;28;20483;-53
2023/05/02 01:59:47;;;;;;;7.30;6.07;;;9.70;85.90;;;;;;5069727;28;20467;-53
2023/05/02 02:02:15;;;;;;;7.70;6.10;;;9.70;90.50;;;;;;5072057;28;20459;-52
2023/05/02 02:04:45;;;;;;;7.77;6.00;;;9.60;90.70;;;;;;5069527;28;20475;-52
2023/05/02 02:07:14;;;;;;;9.67;6.30;;;9.60;90.10;;;;;;5059095;28;21012;-52
2023/05/02 02:09:41;;;;;;;7.70;6.50;;;9.60;91.50;;;;;;5063469;28;20460;-52
2023/05/02 02:12:12;;;;;;;6.57;5.87;;;9.60;87.50;;;;;;5070201;28;20516;-52
2023/05/02 02:14:41;;;;;;;7.53;5.90;;;9.50;88.90;;;;;;5073732;28;20460;-53
2023/05/02 02:17:13;;;;;;;8.03;6.03;;;9.50;88.70;;;;;;5068162;28;20523;-53
2023/05/02 02:19:41;;;;;;;7.93;6.07;;;9.50;85.70;;;;;;5068488;28;20463;-52
2023/05/02 02:22:13;;;;;;;6.87;6.27;;;9.50;87.70;;;;;;5064992;28;20519;-53
2023/05/02 02:24:40;;;;;;;13.40;5.77;;;9.50;87.00;;;;;;5070545;28;20518;-52
2023/05/02 02:27:07;;;;;;;8.27;6.27;;;9.40;84.10;;;;;;5067931;28;21086;-53
2023/05/02 02:29:34;;;;;;;7.17;5.70;;;9.30;75.10;;;;;;5067603;28;20468;-52
2023/05/02 02:32:01;;;;;;;11.53;6.13;;;9.30;72.10;;;;;;5068619;28;21031;-53
2023/05/02 02:34:28;;;;;;;8.03;5.80;;;9.20;70.00;;;;;;5071823;28;20441;-52
2023/05/02 02:36:58;;;;;;;8.13;5.43;;;9.20;68.70;;;;;;5074381;28;20490;-53
2023/05/02 02:39:39;;;;;;;7.20;6.43;;;9.10;63.20;;;;;;5072704;28;20880;-53
2023/05/02 02:42:14;;;;;;;10.67;5.97;;;9.10;57.10;;;;;;5073590;28;20920;-52
2023/05/02 02:44:50;;;;;;;8.90;5.30;;;9.00;55.80;;;;;;5070311;28;20573;-53
2023/05/02 02:47:24;;;;;;;7.40;5.70;;;9.00;51.30;;;;;;5066270;28;20616;-55
2023/05/02 02:50:03;;;;;;;6.80;6.20;;;9.00;46.30;;;;;;5076205;28;20466;-53
2023/05/02 02:52:39;;;;;;;7.03;5.67;;;8.90;37.50;;;;;;5071152;28;20467;-53
2023/05/02 02:55:11;;;;;;;9.17;5.47;;;8.90;29.90;;;;;;5063672;28;20517;-52
2023/05/02 02:57:42;;;;;;;6.73;5.07;;;8.80;76.90;;;;;;5064677;28;20493;-52
2023/05/02 03:00:13;;;;;;;6.10;5.50;;;8.80;81.80;;;;;;5071757;28;20464;-53
2023/05/02 03:02:42;;;;;;;7.10;6.40;;;8.70;99.90;;;;;;5076670;28;20462;-53
2023/05/02 03:05:10;;;;;;;5.87;5.30;;;8.70;99.90;;;;;;5071507;28;20902;-52
2023/05/02 03:07:36;;;;;;;6.33;4.77;;;8.70;99.90;;;;;;5072354;28;20549;-52
2023/05/02 03:10:04;;;;;;;8.30;5.70;;;8.70;99.90;;;;;;5070376;28;20459;-53
2023/05/02 03:12:33;;;;;;;6.17;5.57;;;8.60;99.90;;;;;;5068765;28;20494;-53
2023/05/02 03:15:08;;;;;;;8.37;5.00;;;8.60;99.90;;;;;;5068279;28;20961;-52
2023/05/02 03:17:35;;;;;;;5.77;5.00;;;8.60;99.90;;;;;;5070251;28;20571;-52
2023/05/02 03:20:02;;;;;;;6.80;5.00;;;8.50;99.90;;;;;;5068950;28;20467;-52
2023/05/02 03:22:29;;;;;;;7.33;5.57;;;8.50;99.90;;;;;;5074512;28;20546;-53
2023/05/02 03:24:55;;;;;;;5.33;4.83;;;8.50;99.90;;;;;;5069821;28;20490;-52
2023/05/02 03:27:22;;;;;;;8.80;4.67;;;8.40;99.90;;;;;;5068760;28;20479;-52
2023/05/02 03:29:50;;;;;;;10.43;4.80;;;8.40;99.90;;;;;;5069249;28;20472;-52
2023/05/02 03:32:16;;;;;;;6.93;4.80;;;8.40;99.90;;;;;;5067766;28;20462;-52
2023/05/02 03:34:43;;;;;;;8.83;6.50;;;8.40;99.90;;;;;;5073586;28;20455;-52
2023/05/02 03:37:10;;;;;;;10.40;5.30;;;8.40;99.90;;;;;;5068748;28;20515;-52
2023/05/02 03:39:36;;;;;;;14.13;5.40;;;8.40;99.90;;;;;;5069911;28;20458;-53
2023/05/02 03:42:04;;;;;;;11.03;5.30;;;8.30;99.90;;;;;;5070686;28;20952;-53
2023/05/02 03:44:30;;;;;;;5.33;4.77;;;8.30;99.90;;;;;;5069949;28;20492;-52
2023/05/02 03:46:58;;;;;;;6.90;4.87;;;8.30;99.90;;;;;;5062747;28;20600;-53
2023/05/02 03:49:25;;;;;;;8.63;4.97;;;8.30;99.90;;;;;;5069136;28;20459;-52
2023/05/02 03:51:52;;;;;;;9.07;5.30;;;8.30;99.90;;;;;;5074507;28;20877;-53
2023/05/02 03:54:18;;;;;;;5.07;4.00;;;8.30;99.90;;;;;;5071067;28;20454;-53
2023/05/02 03:56:45;;;;;;;9.20;5.13;;;8.20;99.90;;;;;;5069542;28;20479;-52
2023/05/02 03:59:13;;;;;;;9.63;5.23;;;8.30;99.90;;;;;;5065140;28;20471;-52
2023/05/02 04:01:40;;;;;;;7.80;4.30;;;8.30;99.90;;;;;;5072393;28;20462;-53
2023/05/02 04:04:07;;;;;;;7.20;4.93;;;8.30;99.90;;;;;;5060168;28;20978;-52
2023/05/02 04:06:34;;;;;;;6.17;4.73;;;8.40;99.90;;;;;;5067082;28;20845;-51
2023/05/02 04:09:01;;;;;;;8.20;4.10;;;8.40;99.90;;;;;;5071817;28;20463;-52
2023/05/02 04:11:27;;;;;;;6.63;4.50;;;8.50;99.90;;;;;;5065787;28;20551;-52
2023/05/02 04:13:54;;;;;;;5.17;4.67;;;8.50;99.90;;;;;;5072038;28;21019;-52
2023/05/02 04:16:21;;;;;;;6.80;4.43;;;8.40;99.90;;;;;;5076479;28;20837;-52
2023/05/02 04:18:47;;;;;;;9.30;4.77;;;8.50;99.90;;;;;;5065177;28;21019;-53
2023/05/02 04:21:15;;;;;;;8.00;4.53;;;8.50;99.90;;;;;;5061347;28;20842;-53
2023/05/02 04:23:42;;;;;;;7.73;5.50;;;8.60;99.90;;;;;;5060638;28;20468;-52
2023/05/02 04:26:08;;;;;;;5.10;4.00;;;8.70;99.90;;;;;;5062279;28;20892;-52
2023/05/02 04:28:35;;;;;;;6.50;4.00;;;8.80;99.90;;;;;;5068562;28;20479;-52
2023/05/02 04:31:02;;;;;;;5.67;4.40;;;8.90;99.90;;;;;;5067119;28;20884;-52
2023/05/02 04:33:29;;;;;;;6.30;4.90;;;8.90;99.90;;;;;;5071406;28;20465;-53
2023/05/02 04:35:56;;;;;;;5.43;4.80;;;9.00;99.90;;;;;;5065178;28;20475;-52
2023/05/02 04:38:24;;;;;;;5.37;4.87;;;9.10;99.90;;;;;;5070093;28;20477;-53
2023/05/02 04:40:51;;;;;;;6.97;4.77;;;9.20;99.90;;;;;;5064198;28;20533;-52
2023/05/02 04:43:17;;;;;;;6.43;4.20;;;9.30;30.60;;;;;;5062960;28;20547;-53
2023/05/02 04:45:44;;;;;;;5.47;4.33;;;9.40;34.30;;;;;;5065467;28;20510;-51
2023/05/02 04:48:11;;;;;;;4.00;3.70;;;9.50;36.60;;;;;;5072828;28;20488;-52
2023/05/02 04:50:37;;;;;;;5.10;3.90;;;9.50;38.90;;;;;;5078025;28;20467;-52
2023/05/02 04:53:04;;;;;;;7.00;4.57;;;9.50;33.70;;;;;;5068488;28;20458;-52
2023/05/02 04:55:32;;;;;;;8.63;4.40;;;9.50;41.60;;;;;;5072303;28;20483;-53
2023/05/02 04:57:58;;;;;;;9.47;4.23;;;9.60;41.90;;;;;;5079980;28;20551;-52
2023/05/02 05:00:25;;;;;;;5.03;4.30;;;9.60;34.40;;;;;;5073615;28;21223;-52
2023/05/02 05:02:51;;;;;;;5.80;4.40;;;9.70;51.50;;;;;;5067327;28;20891;-52
2023/05/02 05:05:19;;;;;;;9.30;4.60;;;9.80;60.60;;;;;;5065202;28;20511;-53
2023/05/02 05:07:45;;;;;;;5.87;4.83;;;9.90;65.30;;;;;;5028873;28;994600;-52
2023/05/02 05:10:12;;;;;;;6.70;4.67;;;9.90;72.30;;;;;;5062344;28;20865;-52
2023/05/02 05:12:40;;;;;;;7.63;4.57;;;10.00;69.20;;;;;;5070252;28;20464;-51
2023/05/02 05:15:07;;;;;;;16.03;5.00;;;10.00;72.90;;;;;;5071867;28;20455;-53
2023/05/02 05:17:35;;;;;;;9.80;5.20;;;10.10;74.80;;;;;;5068187;28;20495;-52
2023/05/02 05:20:02;;;;;;;6.93;4.50;;;10.20;73.80;;;;;;5067054;28;20959;-53
2023/05/02 05:22:28;;;;;;;5.73;5.17;;;10.20;86.60;;;;;;5066531;28;20543;-53
2023/05/02 05:24:55;;;;;;;4.70;4.30;;;10.30;83.10;;;;;;5068583;28;20524;-52
2023/05/02 05:27:21;;;;;;;10.87;4.40;;;10.40;78.60;;;;;;5058902;28;20519;-52
2023/05/02 05:29:49;;;;;;;7.87;4.87;;;10.50;79.10;;;;;;5067838;28;20506;-52
2023/05/02 05:32:16;;;;;;;6.17;4.57;;;10.60;84.70;;;;;;5073790;28;21000;-53
2023/05/02 05:34:43;;;;;;;9.63;4.37;;;10.70;81.30;;;;;;5071906;28;20534;-53
2023/05/02 05:37:09;;;;;;;8.60;5.10;;;10.70;86.10;;;;;;5069483;28;20476;-52
2023/05/02 05:39:36;;;;;;;9.73;4.63;;;10.80;83.80;;;;;;5067784;28;20984;-52
2023/05/02 05:42:04;;;;;;;9.13;5.33;;;11.00;85.50;;;;;;5065858;28;20457;-52
2023/05/02 05:44:31;;;;;;;5.53;5.03;;;11.10;93.00;;;;;;5067497;28;20467;-51
2023/05/02 05:46:59;;;;;;;6.37;5.00;;;11.30;99.90;;;;;;5071532;28;20575;-52
2023/05/02 05:49:25;;;;;;;5.33;4.80;;;11.60;87.70;;;;;;5067816;28;20509;-51
2023/05/02 05:51:52;;;;;;;5.10;4.70;;;11.80;99.90;;;;;;5063833;28;20469;-52
2023/05/02 05:54:19;;;;;;;12.00;5.60;;;11.90;99.90;;;;;;5066807;28;20812;-52
2023/05/02 05:56:46;;;;;;;15.23;6.17;;;11.80;99.90;;;;;;5062006;28;20483;-53
2023/05/02 05:59:12;;;;;;;7.27;5.90;;;12.00;99.90;;;;;;5071172;28;20457;-52
2023/05/02 06:01:39;;;;;;;10.30;5.70;;;12.10;99.90;;;;;;5065363;28;20509;-52
2023/05/02 06:04:07;;;;;;;8.40;6.40;;;12.20;99.90;;;;;;5067064;28;20517;-52
2023/05/02 06:06:34;;;;;;;18.83;6.93;;;12.10;99.90;;;;;;5068136;28;20477;-52
2023/05/02 06:09:01;;;;;;;9.90;6.70;;;12.10;99.90;;;;;;5062628;28;20883;-53
2023/05/02 06:11:27;;;;;;;20.53;8.07;;;11.90;99.90;;;;;;5066038;28;20466;-52
2023/05/02 06:13:54;;;;;;;12.37;8.40;;;12.00;99.90;;;;;;5069668;28;20464;-52
2023/05/02 06:16:21;;;;;;;10.33;8.30;;;11.70;99.90;;;;;;5061861;28;20460;-52
2023/05/02 06:18:50;;;;;;;9.27;8.17;;;11.80;99.90;;;;;;5065825;28;20522;-52
2023/05/02 06:21:18;;;;;;;8.90;7.90;;;11.70;99.90;;;;;;5069031;28;20949;-53
2023/05/02 06:23:44;;;;;;;10.40;8.57;;;11.70;98.40;;;;;;5072979;28;20891;-53
2023/05/02 06:26:11;;;;;;;10.23;7.60;;;11.80;96.80;;;;;;5070800;28;20572;-52
2023/05/02 06:28:37;;;;;;;9.40;8.40;;;12.00;99.90;;;;;;5070091;28;20996;-52
2023/05/02 06:31:05;;;;;;;11.57;8.60;;;12.10;99.90;;;;;;5062341;28;21104;-52
2023/05/02 06:33:33;;;;;;;16.27;9.97;;;12.10;99.90;;;;;;5055665;28;20510;-52
2023/05/02 06:36:00;;;;;;;15.50;8.57;;;12.20;99.90;;;;;;5076640;28;20517;-52
2023/05/02 06:38:28;;;;;;;9.40;7.47;;;12.30;99.90;;;;;;5065403;28;20515;-52
2023/05/02 06:40:55;;;;;;;13.60;8.30;;;12.40;99.90;;;;;;5059574;28;22274;-52
2023/05/02 06:43:21;;;;;;;11.93;7.23;;;12.40;99.90;;;;;;5058461;28;20452;-53
2023/05/02 06:45:48;;;;;;;8.20;7.40;;;12.60;99.90;;;;;;5055684;28;21004;-52
2023/05/02 06:48:15;;;;;;;11.30;8.80;;;12.80;99.90;;;;;;5063264;28;20523;-52
2023/05/02 06:50:41;;;;;;;11.10;7.33;;;12.90;99.90;;;;;;5062141;28;20987;-53
2023/05/02 06:53:08;;;;;;;7.10;6.33;;;12.90;99.90;;;;;;5069794;28;20950;-52
2023/05/02 06:55:36;;;;;;;9.57;6.83;;;13.10;99.90;;;;;;5070319;28;20443;-53
2023/05/02 06:58:02;;;;;;;13.43;6.97;;;13.10;99.90;;;;;;5064100;28;20487;-52
2023/05/02 07:00:29;;;;;;;8.00;6.20;;;13.20;99.90;;;;;;5065817;28;20518;-52
2023/05/02 07:02:56;;;;;;;10.20;7.80;;;13.20;99.90;;;;;;5063607;28;20468;-52
2023/05/02 07:05:22;;;;;;;9.33;8.13;;;13.60;99.90;;;;;;5067002;28;20540;-52
2023/05/02 07:07:49;;;;;;;13.73;7.50;;;13.80;99.90;;;;;;5061551;28;20503;-52
2023/05/02 07:10:16;;;;;;;8.97;7.03;;;14.00;99.90;;;;;;5065469;28;20460;-52
2023/05/02 07:12:43;;;;;;;9.73;8.00;;;14.50;99.90;;;;;;5067260;28;20463;-52
2023/05/02 07:15:12;;;;;;;11.63;7.23;;;14.10;99.90;;;;;;5063925;28;20462;-52
2023/05/02 07:17:39;;;;;;;10.57;7.37;;;14.50;99.90;;;;;;5060001;28;20502;-52
2023/05/02 07:20:07;;;;;;;9.20;7.73;;;14.40;99.90;;;;;;5075539;28;20463;-53
2023/05/02 07:22:34;;;;;;;10.53;7.97;;;14.10;99.90;;;;;;5070650;28;21000;-52
2023/05/02 07:25:02;;;;;;;8.23;7.33;;;14.20;99.90;;;;;;5071213;28;20813;-53
2023/05/02 07:27:28;;;;;;;6.13;5.40;;;14.10;99.90;;;;;;5070914;28;20487;-52
2023/05/02 07:29:56;;;;;;;5.53;5.13;;;14.10;99.90;;;;;;5071277;28;20970;-52
2023/05/02 07:32:25;;;;;;;9.20;5.30;;;14.30;99.90;;;;;;5057652;28;20812;-52
2023/05/02 07:34:53;;;;;;;5.90;4.20;;;14.10;99.90;;;;;;5050720;28;20468;-53
2023/05/02 07:37:20;;;;;;;6.10;3.87;;;14.10;99.90;;;;;;5058756;28;20490;-52
2023/05/02 07:39:47;;;;;;;7.23;4.47;;;14.30;99.90;;;;;;5067762;28;20444;-53
2023/05/02 07:42:13;;;;;;;5.27;4.80;;;14.30;99.90;;;;;;5071372;28;20468;-53
2023/05/02 07:44:40;;;;;;;5.00;3.83;;;14.50;99.90;;;;;;5067900;28;20465;-52
2023/05/02 07:47:08;;;;;;;4.50;4.07;;;14.50;99.90;;;;;;5057941;28;20896;-53
2023/05/02 07:49:35;;;;;;;4.30;4.00;;;14.40;83.00;;;;;;5067101;28;20521;-52
2023/05/02 07:52:02;;;;;;;5.13;4.73;;;14.80;22.90;;;;;;5071565;28;20476;-52
2023/05/02 07:54:29;;;;;;;4.57;4.27;;;14.70;99.90;;;;;;5071788;28;20456;-52
2023/05/02 07:56:57;;;;;;;7.23;5.13;;;14.50;99.90;;;;;;5069764;28;20547;-52
2023/05/02 07:59:23;;;;;;;6.20;5.60;;;13.90;99.90;;;;;;5060624;28;20453;-49
2023/05/02 08:01:50;;;;;;;5.70;5.20;;;13.80;99.90;;;;;;5068456;28;20453;-50
2023/05/02 08:04:18;;;;;;;7.00;5.73;;;14.10;99.90;;;;;;5073421;28;20451;-51
2023/05/02 08:06:44;;;;;;;7.60;5.47;;;14.40;99.90;;;;;;5071554;28;20549;-51
2023/05/02 08:09:11;;;;;;;6.57;5.90;;;14.50;99.90;;;;;;5070181;28;20509;-50
2023/05/02 08:11:37;;;;;;;5.33;4.80;;;14.20;99.90;;;;;;5067166;28;20485;-50
2023/05/02 08:14:04;;;;;;;5.77;4.70;;;14.00;99.90;;;;;;5063336;28;20456;-51
2023/05/02 08:16:31;;;;;;;12.07;9.17;;;13.80;99.90;;;;;;5063261;28;20456;-50
2023/05/02 08:18:57;;;;;;;5.37;4.40;;;13.80;99.90;;;;;;5063971;28;20453;-50
2023/05/02 08:21:26;;;;;;;5.20;4.70;;;13.60;99.90;;;;;;5058266;28;21156;-50
2023/05/02 08:23:57;;;;;;;6.77;4.97;;;13.40;99.90;;;;;;5067194;28;20510;-50
2023/05/02 08:26:24;;;;;;;5.33;4.77;;;13.40;99.90;;;;;;5068598;28;20487;-51
2023/05/02 08:28:51;;;;;;;6.27;5.73;;;13.40;99.90;;;;;;5072180;28;20462;-50
2023/05/02 08:31:18;;;;;;;5.13;4.60;;;13.50;99.90;;;;;;5065939;28;20970;-49
2023/05/02 08:33:45;;;;;;;5.10;4.60;;;13.50;99.90;;;;;;5058363;28;20477;-51
2023/05/02 08:36:12;;;;;;;6.77;5.30;;;13.50;99.90;;;;;;5064571;28;21016;-51
2023/05/02 08:38:41;;;;;;;4.73;4.30;;;13.20;99.90;;;;;;5066339;28;20968;-50
2023/05/02 08:41:11;;;;;;;10.63;4.70;;;13.40;99.90;;;;;;5070703;28;20469;-51
2023/05/02 08:43:39;;;;;;;7.60;4.90;;;13.50;99.90;;;;;;5067845;28;20470;-50
2023/05/02 08:46:07;;;;;;;5.17;4.77;;;13.50;99.90;;;;;;5072160;28;20542;-50
2023/05/02 08:48:36;;;;;;;7.40;4.90;;;13.40;99.90;;;;;;5071606;28;20478;-50
2023/05/02 08:51:03;;;;;;;6.53;4.87;;;13.40;99.90;;;;;;5063245;28;20514;-50
2023/05/02 08:53:33;;;;;;;5.00;4.60;;;13.40;99.90;;;;;;5061077;28;20517;-49
2023/05/02 08:56:02;;;;;;;5.87;5.27;;;13.40;99.90;;;;;;5067947;28;20456;-50
2023/05/02 08:58:29;;;;;;;4.87;4.37;;;13.30;99.90;;;;;;5071488;28;20549;-50
2023/05/02 09:00:58;;;;;;;6.00;4.63;;;13.20;99.90;;;;;;5062020;28;20551;-50
2023/05/02 09:03:30;;;;;;;18.77;5.00;;;13.10;99.90;;;;;;5069250;28;20474;-51
2023/05/02 09:06:05;;;;;;;5.40;4.90;;;13.00;99.90;;;;;;5062692;28;20457;-51
2023/05/02 09:08:32;;;;;;;5.53;4.73;;;13.10;90.20;;;;;;5074374;22;20506;-53
2023/05/02 09:10:59;;;;;;;4.73;4.30;;;13.10;86.30;;;;;;5069117;28;20555;-53
2023/05/02 09:13:31;;;;;;;6.00;5.13;;;13.40;94.10;;;;;;5071867;28;20454;-54
2023/05/02 09:15:59;;;;;;;7.13;5.67;;;14.00;99.90;;;;;;5066114;28;20464;-53
2023/05/02 09:18:30;;;;;;;9.43;6.20;;;14.10;99.90;;;;;;5052445;28;20855;-55
2023/05/02 09:20:59;;;;;;;10.20;6.70;;;14.10;99.90;;;;;;5055041;28;20446;-53
2023/05/02 09:23:36;;;;;;;6.13;5.53;;;14.20;99.90;;;;;;5052753;28;20929;-53
2023/05/02 09:26:11;;;;;;;5.37;4.87;;;14.20;99.90;;;;;;5053516;28;20455;-53
2023/05/02 09:28:41;;;;;;;5.03;4.63;;;14.00;99.90;;;;;;5045503;28;20488;-52
2023/05/02 09:31:09;;;;;;;4.67;4.27;;;13.70;99.90;;;;;;5048290;28;20902;-53
2023/05/02 09:33:36;;;;;;;7.33;5.27;;;13.20;99.90;;;;;;5050492;28;20454;-52
2023/05/02 09:36:03;;;;;;;5.57;4.03;;;13.00;88.10;;;;;;5050076;28;20457;-54
2023/05/02 09:38:30;;;;;;;3.17;2.97;;;13.20;96.00;;;;;;5046187;28;20563;-53
2023/05/02 09:40:56;;;;;;;3.10;2.80;;;13.20;99.90;;;;;;5051659;28;20479;-53
2023/05/02 09:43:23;;;;;;;2.50;2.40;;;13.30;99.90;;;;;;5053481;28;20436;-56
2023/05/02 09:46:02;;;;;;;2.30;2.17;;;13.50;99.90;;;;;;5050653;28;20522;-54
2023/05/02 09:48:30;;;;;;;2.67;2.03;;;13.80;99.90;;;;;;5059654;28;20480;-53
2023/05/02 09:50:57;;;;;;;1.87;1.73;;;14.10;99.90;;;;;;5051521;28;20463;-50
2023/05/02 09:53:26;;;;;;;3.27;1.73;;;14.40;99.90;;;;;;5056123;28;20896;-50
2023/05/02 09:56:00;;;;;;;1.77;1.67;;;14.10;99.90;;;;;;5058280;28;20518;-50
2023/05/02 09:58:29;;;;;;;1.87;1.50;;;14.00;99.90;;;;;;5050688;28;20505;-51
2023/05/02 10:00:56;;;;;;;1.40;1.27;;;13.90;99.90;;;;;;5049920;28;20458;-50
2023/05/02 10:03:26;;;;;;;2.20;1.43;;;13.80;99.90;;;;;;5051679;28;20527;-50
2023/05/02 10:05:53;;;;;;;6.73;1.97;;;13.70;99.90;;;;;;5052339;28;20468;-50
2023/05/02 10:08:21;;;;;;;3.13;1.77;;;13.30;99.90;;;;;;5047562;28;20538;-49
2023/05/02 10:10:52;;;;;;;2.30;1.80;;;13.20;99.90;;;;;;5051989;28;20466;-50
2023/05/02 10:13:21;;;;;;;1.87;1.60;;;12.90;99.90;;;;;;5048554;28;20521;-50
2023/05/02 10:15:54;;;;;;;3.93;2.03;;;12.90;99.90;;;;;;5048481;28;20529;-50
2023/05/02 10:18:27;;;;;;;6.07;1.90;;;12.80;99.90;;;;;;5050725;28;21000;-50
2023/05/02 10:20:58;;;;;;;6.50;2.20;;;12.80;99.90;;;;;;5048904;28;20463;-51
2023/05/02 10:23:29;;;;;;;12.90;2.87;;;12.50;99.90;;;;;;5045570;28;20475;-50
2023/05/02 10:25:57;;;;;;;2.77;2.50;;;12.40;99.90;;;;;;5050242;28;20477;-49
2023/05/02 10:28:24;;;;;;;4.87;3.23;;;12.40;99.90;;;;;;5043118;28;20495;-50
2023/05/02 10:30:52;;;;;;;10.47;4.37;;;12.20;99.90;;;;;;5053661;28;20569;-50
2023/05/02 10:33:20;;;;;;;8.30;3.90;;;12.00;99.90;;;;;;5048304;28;20503;-49
2023/05/02 10:35:49;;;;;;;7.83;3.90;;;12.10;99.90;;;;;;5050338;28;20457;-50
2023/05/02 10:38:18;;;;;;;15.67;3.87;;;12.00;96.70;;;;;;5070481;28;20470;-56
2023/05/02 10:40:55;;;;;;;14.40;3.73;;;12.00;94.40;;;;;;5052514;28;20827;-50
2023/05/02 10:43:24;;;;;;;10.20;3.80;;;12.10;99.90;;;;;;5042914;28;20515;-50
2023/05/02 10:45:51;;;;;;;8.23;3.47;;;12.10;99.90;;;;;;5045022;28;20815;-49
2023/05/02 10:48:20;;;;;;;8.60;3.67;;;11.70;99.90;;;;;;5040410;28;20489;-50
2023/05/02 10:50:50;;;;;;;10.17;3.87;;;11.50;99.90;;;;;;5047998;28;20833;-50
2023/05/02 10:53:31;;;;;;;7.50;4.17;;;11.30;99.90;;;;;;5042905;28;20461;-49
2023/05/02 10:56:15;;;;;;;8.67;4.07;;;11.40;99.90;;;;;;5049451;28;20489;-51
2023/05/02 10:58:43;;;;;;;16.60;5.23;;;11.60;99.90;;;;;;5046392;28;20480;-49
2023/05/02 11:01:33;;;;;;;8.50;4.10;;;11.40;99.90;;;;;;5046448;28;20460;-50
2023/05/02 11:04:00;;;;;;;13.43;5.20;;;11.20;99.90;;;;;;5041477;28;20556;-49
2023/05/02 11:06:30;;;;;;;13.43;4.67;;;11.10;99.90;;;;;;5046717;28;20470;-49
2023/05/02 11:09:30;;;;;;;15.60;4.13;;;11.10;99.90;;;;;;5047919;28;20496;-49
2023/05/02 11:11:57;;;;;;;9.03;3.70;;;11.40;99.90;;;;;;5050210;28;20497;-49
2023/05/02 11:14:52;;;;;;;14.10;4.40;;;11.50;99.90;;;;;;5041730;28;20522;-50
2023/05/02 11:17:19;;;;;;;16.70;4.40;;;11.70;99.90;;;;;;5040684;28;20513;-49
2023/05/02 11:20:23;;;;;;;14.53;4.70;;;11.60;99.90;;;;;;5048549;28;20911;-49
2023/05/02 11:22:52;;;;;;;9.17;4.00;;;11.90;99.90;;;;;;5051611;28;20531;-48
2023/05/02 11:25:36;;;;;;;10.00;3.43;;;11.70;99.90;;;;;;5046274;28;20492;-49
2023/05/02 11:28:04;;;;;;;7.03;3.60;;;12.00;99.90;;;;;;5067318;28;20488;-49
2023/05/02 11:30:47;;;;;;;11.57;3.97;;;11.80;75.40;;;;;;5057606;28;20522;-49
2023/05/02 11:33:18;;;;;;;8.80;3.80;;;12.50;29.60;;;;;;5045049;28;20465;-49
2023/05/02 11:35:47;;;;;;;12.47;4.50;;;12.50;66.40;;;;;;5052050;28;21088;-49
2023/05/02 11:38:17;;;;;;;15.93;4.03;;;12.50;62.10;;;;;;5042149;28;20570;-49
2023/05/02 11:40:56;;;;;;;10.50;4.17;;;12.40;82.10;;;;;;5037690;28;20456;-49
2023/05/02 11:43:24;;;;;;;8.50;3.40;;;12.60;85.40;;;;;;5034523;28;20512;-48
2023/05/02 11:45:52;;;;;;;7.63;3.50;;;12.60;91.60;;;;;;5040551;28;21092;-49
2023/05/02 11:48:20;;;;;;;12.30;4.20;;;12.10;72.20;;;;;;5041755;28;20528;-49
2023/05/02 11:50:49;;;;;;;13.60;3.23;;;12.40;79.80;;;;;;5046366;28;20474;-50
2023/05/02 11:53:18;;;;;;;14.60;5.13;;;12.30;92.00;;;;;;5049899;28;20466;-50
2023/05/02 11:55:46;;;;;;;9.27;3.33;;;12.50;84.10;;;;;;5045600;28;20953;-49
2023/05/02 11:58:15;;;;;;;10.50;4.10;;;12.50;99.90;;;;;;5043024;28;20527;-49
2023/05/02 12:00:45;;;;;;;7.90;3.40;;;13.10;85.30;;;;;;5042881;28;20486;-49
2023/05/02 12:03:23;;;;;;;16.57;4.73;;;13.30;99.90;;;;;;5043461;28;20469;-49
2023/05/02 12:05:50;;;;;;;12.83;3.90;;;13.70;99.90;;;;;;5045284;28;20468;-50
2023/05/02 12:08:23;;;;;;;9.70;3.93;;;13.30;99.90;;;;;;5045961;28;20522;-49
2023/05/02 12:10:53;;;;;;;6.03;3.17;;;12.70;99.90;;;;;;5043466;28;20470;-49
2023/05/02 12:13:22;;;;;;;7.93;3.17;;;13.10;99.90;;;;;;5046366;28;20461;-49
2023/05/02 12:15:50;;;;;;;8.47;3.70;;;13.00;99.90;;;;;;5042835;28;20503;-50
2023/05/02 12:18:17;;;;;;;8.07;3.50;;;13.00;99.90;;;;;;5053431;28;20512;-50
2023/05/02 12:20:45;;;;;;;8.63;4.40;;;12.80;99.90;;;;;;5047124;28;20548;-49
2023/05/02 12:23:12;;;;;;;5.70;3.73;;;12.50;99.90;;;;;;5056289;28;20464;-49
2023/05/02 12:25:41;;;;;;;14.47;4.60;;;12.40;99.90;;;;;;5045097;28;20467;-49
2023/05/02 12:28:09;;;;;;;12.37;4.40;;;12.60;99.90;;;;;;5048562;28;20490;-49
2023/05/02 12:30:38;;;;;;;15.60;4.43;;;12.30;99.90;;;;;;5051739;28;20469;-50
2023/05/02 12:33:06;;;;;;;10.77;5.37;;;12.60;99.90;;;;;;5047700;28;20473;-50
2023/05/02 12:35:33;;;;;;;9.23;4.20;;;12.80;99.90;;;;;;5047075;28;20904;-50
2023/05/02 12:38:12;;;;;;;15.23;4.00;;;13.00;99.90;;;;;;5044758;28;20469;-49
2023/05/02 12:40:50;;;;;;;14.30;5.33;;;12.90;99.90;;;;;;5055650;28;21165;-49
2023/05/02 12:43:17;;;;;;;14.90;4.73;;;12.90;99.90;;;;;;5052166;28;20546;-49
2023/05/02 12:45:44;;;;;;;9.00;3.53;;;13.10;99.90;;;;;;5045929;28;20456;-49
2023/05/02 12:48:19;;;;;;;12.00;4.73;;;13.50;99.90;;;;;;5042700;28;21205;-49
2023/05/02 12:50:46;;;;;;;4.80;3.40;;;14.70;99.90;;;;;;5043754;28;20936;-55
2023/05/02 12:53:12;;;;;;;11.23;4.50;;;14.80;99.90;;;;;;5049813;28;20476;-54
2023/05/02 12:55:41;;;;;;;8.43;4.10;;;15.00;99.90;;;;;;5050476;28;20464;-55